Time;durP1;ratioP1;P1;durP2;ratioP2;P2;SDS_P1;SDS_P2;PMS_P1;PMS_P2;Temp;Humidity;BMP_temperature;BMP_pressure;BME280_temperature;BME280_humidity;BME280_pressure;Samples;Min_cycle;Max_cycle;Signal;HPM_P1;HPM_P2
2023/04/13 00:01:31;;;;;;;0.83;0.70;;;17.30;56.00;;;;;;5048877;28;20210;-46
2023/04/13 00:04:03;;;;;;;1.20;0.80;;;17.30;56.00;;;;;;5050861;28;20210;-46
2023/04/13 00:06:33;;;;;;;1.10;0.60;;;17.30;55.90;;;;;;5048845;28;20652;-46
2023/04/13 00:09:02;;;;;;;2.27;0.60;;;17.30;55.90;;;;;;5048591;28;20431;-46
2023/04/13 00:11:31;;;;;;;2.77;0.70;;;17.30;55.90;;;;;;5055910;28;20602;-46
2023/04/13 00:14:02;;;;;;;1.30;0.70;;;17.30;56.00;;;;;;5052359;28;20791;-46
2023/04/13 00:16:31;;;;;;;2.40;0.80;;;17.30;56.00;;;;;;5050194;28;20201;-46
2023/04/13 00:19:00;;;;;;;1.70;0.87;;;17.30;56.10;;;;;;5030908;28;20380;-46
2023/04/13 00:21:32;;;;;;;1.37;0.60;;;17.30;56.10;;;;;;5048989;28;20222;-46
2023/04/13 00:24:07;;;;;;;2.63;0.87;;;17.30;56.00;;;;;;5051274;28;20225;-46
2023/04/13 00:26:37;;;;;;;0.77;0.67;;;17.20;55.90;;;;;;5063483;28;20190;-46
2023/04/13 00:29:06;;;;;;;1.90;0.60;;;17.20;55.90;;;;;;5069705;28;20189;-46
2023/04/13 00:31:38;;;;;;;2.23;0.57;;;17.20;55.80;;;;;;5053224;28;20201;-46
2023/04/13 00:34:10;;;;;;;3.80;0.67;;;17.20;55.70;;;;;;5045032;28;20225;-46
2023/04/13 00:36:42;;;;;;;1.77;0.50;;;17.20;55.70;;;;;;5048885;28;20608;-46
2023/04/13 00:39:15;;;;;;;1.53;0.50;;;17.20;55.70;;;;;;5069824;28;20205;-46
2023/04/13 00:41:46;;;;;;;2.57;0.70;;;17.20;55.80;;;;;;5058778;28;20194;-46
2023/04/13 00:44:18;;;;;;;1.13;0.50;;;17.20;55.80;;;;;;5051750;28;20555;-46
2023/04/13 00:46:53;;;;;;;1.07;0.73;;;17.20;55.90;;;;;;5032965;28;20226;-46
2023/04/13 00:49:22;;;;;;;2.17;0.80;;;17.20;55.90;;;;;;5051568;28;20237;-46
2023/04/13 00:51:55;;;;;;;1.90;0.73;;;17.20;55.90;;;;;;5051391;28;20190;-46
2023/04/13 00:54:25;;;;;;;2.27;0.77;;;17.20;55.90;;;;;;5050598;28;20567;-46
2023/04/13 00:57:00;;;;;;;1.00;0.50;;;17.20;56.00;;;;;;5033678;28;20757;-46
2023/04/13 00:59:32;;;;;;;0.90;0.60;;;17.20;55.90;;;;;;5066107;28;20218;-46
2023/04/13 01:02:04;;;;;;;1.00;0.60;;;17.20;55.90;;;;;;5052048;28;20216;-46
2023/04/13 01:04:48;;;;;;;1.07;0.53;;;17.10;55.90;;;;;;5050083;28;20230;-46
2023/04/13 01:07:37;;;;;;;1.90;0.77;;;17.20;56.00;;;;;;5061865;28;20209;-46
2023/04/13 01:10:25;;;;;;;0.90;0.57;;;17.20;56.10;;;;;;5067162;28;20216;-46
2023/04/13 01:13:19;;;;;;;2.83;0.63;;;17.10;56.10;;;;;;5036064;28;20225;-46
2023/04/13 01:16:01;;;;;;;1.10;0.40;;;17.20;56.10;;;;;;5061963;28;20713;-46
2023/04/13 01:18:38;;;;;;;1.10;0.43;;;17.10;56.10;;;;;;5051803;28;20190;-46
2023/04/13 01:21:11;;;;;;;1.50;0.50;;;17.10;56.20;;;;;;5025342;28;20238;-46
2023/04/13 01:24:00;;;;;;;1.13;0.50;;;17.10;56.30;;;;;;5061952;28;20275;-46
2023/04/13 01:26:59;;;;;;;0.83;0.40;;;17.10;56.20;;;;;;5031454;28;20616;-46
2023/04/13 01:29:31;;;;;;;2.10;0.60;;;17.10;56.30;;;;;;5027841;28;20206;-46
2023/04/13 01:32:13;;;;;;;1.30;0.50;;;17.10;56.30;;;;;;5027118;28;20210;-46
2023/04/13 01:34:44;;;;;;;0.50;0.50;;;17.10;56.30;;;;;;5037809;28;20199;-46
2023/04/13 01:37:16;;;;;;;1.13;0.60;;;17.10;56.30;;;;;;5028357;28;20210;-46
2023/04/13 01:39:46;;;;;;;2.40;0.70;;;17.10;56.30;;;;;;5049239;28;20206;-46
2023/04/13 01:42:17;;;;;;;1.40;0.50;;;17.10;56.30;;;;;;5066730;28;20603;-46
2023/04/13 01:44:48;;;;;;;2.50;0.60;;;17.10;56.50;;;;;;5052437;28;20231;-45
2023/04/13 01:47:23;;;;;;;1.57;0.40;;;17.10;56.40;;;;;;5048426;28;20179;-46
2023/04/13 01:50:21;;;;;;;1.17;0.50;;;17.10;56.30;;;;;;5048798;28;20221;-46
2023/04/13 01:52:54;;;;;;;0.60;0.30;;;17.10;56.40;;;;;;5044477;28;20198;-46
2023/04/13 01:55:30;;;;;;;1.27;0.50;;;17.10;56.40;;;;;;5038899;28;20233;-46
2023/04/13 01:58:03;;;;;;;1.27;0.60;;;17.10;56.50;;;;;;5038795;28;20222;-46
2023/04/13 02:00:36;;;;;;;0.80;0.50;;;17.10;56.40;;;;;;5032569;28;20209;-46
2023/04/13 02:03:11;;;;;;;1.50;0.50;;;17.10;56.40;;;;;;5047789;28;20222;-46
2023/04/13 02:05:42;;;;;;;1.27;0.60;;;17.10;56.40;;;;;;5033033;28;20202;-46
2023/04/13 02:08:14;;;;;;;1.73;0.60;;;17.10;56.50;;;;;;5051492;28;20207;-46
2023/04/13 02:10:45;;;;;;;1.13;0.50;;;17.10;56.50;;;;;;5027885;28;20210;-46
2023/04/13 02:13:17;;;;;;;0.77;0.50;;;17.10;56.50;;;;;;5049877;28;20202;-46
2023/04/13 02:15:49;;;;;;;0.77;0.60;;;17.00;56.50;;;;;;5067561;28;20189;-46
2023/04/13 02:18:19;;;;;;;2.07;0.57;;;17.10;56.50;;;;;;5047232;28;20198;-46
2023/04/13 02:21:10;;;;;;;1.83;0.77;;;17.10;56.60;;;;;;5057645;28;20225;-46
2023/04/13 02:23:40;;;;;;;1.63;0.90;;;17.10;56.60;;;;;;5041202;28;20210;-46
2023/04/13 02:26:12;;;;;;;1.80;1.07;;;17.00;56.70;;;;;;5024589;28;20202;-46
2023/04/13 02:28:41;;;;;;;1.43;0.50;;;17.10;56.60;;;;;;5036543;28;20186;-46
2023/04/13 02:31:08;;;;;;;1.47;0.50;;;17.00;56.60;;;;;;5057347;28;20210;-46
2023/04/13 02:33:39;;;;;;;1.53;0.60;;;17.00;56.70;;;;;;5032505;28;20768;-45
2023/04/13 02:36:24;;;;;;;1.83;0.67;;;17.00;56.70;;;;;;5049531;28;20202;-46
2023/04/13 02:39:04;;;;;;;1.77;0.70;;;17.00;56.70;;;;;;5049955;28;20205;-46
2023/04/13 02:41:36;;;;;;;1.30;0.50;;;17.00;56.70;;;;;;5055673;28;20202;-46
2023/04/13 02:44:10;;;;;;;1.07;0.97;;;17.00;56.70;;;;;;5062329;28;20213;-46
2023/04/13 02:46:41;;;;;;;1.00;0.60;;;17.00;56.80;;;;;;5031753;28;20209;-46
2023/04/13 02:49:09;;;;;;;2.10;0.77;;;17.00;56.80;;;;;;5062858;28;20194;-46
2023/04/13 02:51:39;;;;;;;1.53;0.70;;;17.00;56.80;;;;;;5056621;28;20622;-46
2023/04/13 02:54:10;;;;;;;1.53;0.60;;;17.00;56.90;;;;;;5043139;28;20595;-46
2023/04/13 02:56:42;;;;;;;1.10;0.77;;;17.00;56.90;;;;;;5016911;28;20210;-45
2023/04/13 02:59:15;;;;;;;1.33;0.70;;;17.00;56.90;;;;;;5048535;28;20190;-46
2023/04/13 03:01:49;;;;;;;1.17;0.50;;;17.00;56.90;;;;;;5048952;28;20612;-46
2023/04/13 03:04:24;;;;;;;2.73;0.67;;;17.00;56.90;;;;;;5040343;28;20228;-46
2023/04/13 03:06:55;;;;;;;1.30;0.50;;;17.00;57.00;;;;;;5028444;28;20267;-46
2023/04/13 03:09:28;;;;;;;1.50;0.50;;;17.00;57.00;;;;;;5046873;28;20218;-46
2023/04/13 03:12:01;;;;;;;1.07;0.80;;;17.00;57.10;;;;;;5055697;28;20198;-46
2023/04/13 03:14:35;;;;;;;1.30;0.60;;;17.00;57.10;;;;;;5057390;28;20639;-46
2023/04/13 03:17:04;;;;;;;2.00;0.70;;;17.00;57.10;;;;;;5059195;28;20194;-46
2023/04/13 03:19:36;;;;;;;1.10;0.53;;;17.00;57.10;;;;;;5062057;28;20201;-46
2023/04/13 03:22:08;;;;;;;0.90;0.60;;;17.00;57.20;;;;;;5046008;28;20233;-46
2023/04/13 03:24:36;;;;;;;1.00;0.57;;;17.00;57.20;;;;;;5056928;28;20201;-46
2023/04/13 03:27:08;;;;;;;1.20;0.70;;;17.00;57.30;;;;;;5062786;28;20232;-46
2023/04/13 03:29:38;;;;;;;0.90;0.60;;;17.00;57.30;;;;;;5061973;28;20536;-46
2023/04/13 03:32:18;;;;;;;0.73;0.50;;;17.00;57.30;;;;;;5049356;28;20202;-46
2023/04/13 03:34:48;;;;;;;1.43;0.70;;;17.00;57.40;;;;;;5051303;28;20275;-46
2023/04/13 03:37:21;;;;;;;1.13;0.83;;;17.00;57.40;;;;;;5053441;28;20202;-46
2023/04/13 03:39:53;;;;;;;2.53;0.73;;;17.00;57.50;;;;;;5048807;28;20233;-46
2023/04/13 03:42:25;;;;;;;1.70;0.70;;;17.00;57.50;;;;;;5035343;28;20201;-46
2023/04/13 03:44:55;;;;;;;1.73;0.77;;;17.00;57.50;;;;;;5059369;28;20214;-46
2023/04/13 03:47:25;;;;;;;0.73;0.60;;;17.00;57.50;;;;;;5037997;28;20244;-46
2023/04/13 03:49:53;;;;;;;1.10;0.43;;;17.00;57.50;;;;;;5056037;28;20206;-46
2023/04/13 03:52:23;;;;;;;1.67;0.77;;;17.00;57.50;;;;;;5048411;28;20203;-46
2023/04/13 03:54:54;;;;;;;1.17;0.50;;;16.90;57.50;;;;;;5052048;28;20233;-46
2023/04/13 03:57:27;;;;;;;1.17;0.67;;;16.90;57.50;;;;;;5041242;28;20230;-46
2023/04/13 03:59:55;;;;;;;1.63;0.73;;;17.00;57.60;;;;;;5060205;28;20229;-46
2023/04/13 04:02:26;;;;;;;1.37;0.60;;;16.90;57.50;;;;;;5047659;28;20202;-46
2023/04/13 04:04:58;;;;;;;2.07;0.70;;;16.90;58.10;;;;;;5047600;28;20230;-46
2023/04/13 04:07:35;;;;;;;1.50;0.70;;;17.00;57.70;;;;;;5049372;28;20194;-46
2023/04/13 04:10:08;;;;;;;2.03;0.57;;;17.00;57.70;;;;;;5038689;28;20217;-46
2023/04/13 04:12:39;;;;;;;1.00;0.43;;;16.90;57.70;;;;;;5033558;28;20197;-45
2023/04/13 04:15:08;;;;;;;1.50;0.73;;;17.00;57.80;;;;;;5052355;28;20199;-46
2023/04/13 04:17:38;;;;;;;2.30;0.60;;;17.00;57.80;;;;;;5027582;28;20194;-46
2023/04/13 04:20:09;;;;;;;1.67;0.70;;;17.00;57.80;;;;;;5020575;28;20202;-46
2023/04/13 04:22:40;;;;;;;1.60;0.47;;;16.90;57.80;;;;;;5029326;28;20202;-46
2023/04/13 04:25:10;;;;;;;0.63;0.60;;;16.90;57.80;;;;;;5038199;28;20618;-46
2023/04/13 04:27:45;;;;;;;1.63;0.80;;;17.00;58.00;;;;;;5047017;28;20207;-46
2023/04/13 04:30:20;;;;;;;2.30;0.50;;;16.90;57.90;;;;;;5033000;28;20202;-46
2023/04/13 04:32:53;;;;;;;1.53;0.73;;;16.90;58.00;;;;;;5045175;28;20604;-46
2023/04/13 04:35:54;;;;;;;2.30;0.60;;;16.90;58.00;;;;;;5036777;28;20222;-46
2023/04/13 04:38:40;;;;;;;1.07;0.57;;;16.90;58.00;;;;;;5025784;28;20293;-46
2023/04/13 04:41:12;;;;;;;1.10;0.63;;;16.90;58.10;;;;;;5059598;28;20393;-46
2023/04/13 04:43:44;;;;;;;1.40;0.60;;;16.90;58.10;;;;;;5034988;28;20215;-46
2023/04/13 04:46:15;;;;;;;0.77;0.40;;;16.90;58.10;;;;;;5038902;28;20191;-46
2023/04/13 04:48:46;;;;;;;0.80;0.50;;;16.90;58.10;;;;;;5016041;28;20285;-46
2023/04/13 04:51:17;;;;;;;1.60;0.50;;;16.90;58.10;;;;;;5031450;28;20194;-46
2023/04/13 04:53:48;;;;;;;0.40;0.40;;;16.90;58.10;;;;;;5045066;28;20261;-46
2023/04/13 04:56:21;;;;;;;1.13;0.50;;;16.90;58.00;;;;;;5031930;28;20203;-45
2023/04/13 04:58:50;;;;;;;1.63;0.70;;;16.90;58.00;;;;;;5025004;28;20542;-45
2023/04/13 05:01:25;;;;;;;1.37;0.70;;;16.90;58.00;;;;;;5019908;28;20198;-45
2023/04/13 05:03:56;;;;;;;1.87;0.70;;;16.90;58.00;;;;;;5049497;28;20218;-45
2023/04/13 05:06:31;;;;;;;1.10;0.60;;;16.90;58.00;;;;;;5039792;28;20201;-47
2023/04/13 05:09:07;;;;;;;3.07;0.70;;;16.90;58.00;;;;;;5033459;28;20210;-47
2023/04/13 05:11:45;;;;;;;2.17;0.60;;;16.90;58.00;;;;;;5036284;28;20198;-47
2023/04/13 05:14:13;;;;;;;2.03;0.57;;;16.90;58.20;;;;;;5031877;28;20199;-46
2023/04/13 05:16:45;;;;;;;5.87;1.80;;;16.90;58.40;;;;;;5028771;28;20499;-45
2023/04/13 05:19:14;;;;;;;11.53;3.73;;;16.90;58.90;;;;;;5030594;28;20261;-45
2023/04/13 05:21:45;;;;;;;10.97;3.90;;;16.90;59.10;;;;;;5030596;28;20227;-47
2023/04/13 05:24:15;;;;;;;11.00;3.53;;;17.00;59.90;;;;;;5042625;28;20275;-47
2023/04/13 05:26:45;;;;;;;9.30;3.60;;;17.10;60.80;;;;;;5056635;28;20203;-47
2023/04/13 05:29:16;;;;;;;6.87;3.20;;;17.10;61.10;;;;;;5049788;28;20194;-47
2023/04/13 05:31:47;;;;;;;7.40;3.03;;;17.10;61.20;;;;;;5069260;28;20287;-47
2023/04/13 05:34:17;;;;;;;9.37;3.20;;;17.20;61.60;;;;;;5054974;28;20210;-47
2023/04/13 05:36:49;;;;;;;10.37;3.20;;;17.20;61.60;;;;;;5039955;28;20194;-47
2023/04/13 05:39:19;;;;;;;8.07;2.90;;;17.30;61.60;;;;;;5056290;28;20202;-47
2023/04/13 05:41:51;;;;;;;9.23;2.47;;;17.40;61.20;;;;;;5058591;28;20193;-46
2023/04/13 05:44:21;;;;;;;5.70;2.20;;;17.30;60.40;;;;;;5054112;28;20227;-46
2023/04/13 05:46:51;;;;;;;6.93;2.40;;;17.40;60.10;;;;;;5058844;28;20818;-47
2023/04/13 05:49:25;;;;;;;9.67;2.10;;;17.40;59.70;;;;;;5054624;28;20630;-47
2023/04/13 05:51:57;;;;;;;12.07;2.67;;;17.30;60.30;;;;;;5053026;28;20646;-47
2023/04/13 05:54:29;;;;;;;7.13;2.13;;;17.30;59.60;;;;;;5063103;28;20194;-47
2023/04/13 05:56:59;;;;;;;6.37;1.93;;;17.30;59.40;;;;;;5054028;28;20345;-47
2023/04/13 05:59:29;;;;;;;5.43;1.70;;;17.30;59.20;;;;;;5050771;28;20229;-48
2023/04/13 06:02:01;;;;;;;3.93;1.53;;;17.30;59.00;;;;;;5060723;28;20194;-47
2023/04/13 06:04:33;;;;;;;4.13;1.83;;;17.30;58.80;;;;;;5050342;28;20221;-45
2023/04/13 06:07:03;;;;;;;4.73;1.83;;;17.30;58.60;;;;;;5030620;28;20205;-47
2023/04/13 06:09:32;;;;;;;6.43;1.97;;;17.30;58.50;;;;;;5029226;28;20215;-47
2023/04/13 06:12:02;;;;;;;5.10;1.70;;;17.30;58.40;;;;;;5052410;28;20198;-47
2023/04/13 06:14:34;;;;;;;3.93;1.40;;;17.30;58.30;;;;;;5069451;28;20189;-48
2023/04/13 06:17:02;;;;;;;3.67;1.60;;;17.20;58.10;;;;;;5056400;28;20195;-47
2023/04/13 06:19:33;;;;;;;4.90;1.47;;;17.30;58.20;;;;;;5059804;28;20212;-47
2023/04/13 06:22:03;;;;;;;3.60;1.50;;;17.30;58.10;;;;;;5054499;28;20260;-48
2023/04/13 06:24:37;;;;;;;3.70;1.30;;;17.20;57.90;;;;;;5049833;28;20670;-48
2023/04/13 06:27:08;;;;;;;4.70;1.80;;;17.30;57.90;;;;;;5052179;28;20210;-47
2023/04/13 06:29:39;;;;;;;4.20;1.63;;;17.20;57.80;;;;;;5050224;28;20204;-48
2023/04/13 06:32:12;;;;;;;2.93;1.23;;;17.20;57.70;;;;;;5049988;28;20198;-47
2023/04/13 06:34:44;;;;;;;5.63;1.60;;;17.20;57.70;;;;;;5047745;28;20648;-47
2023/04/13 06:37:14;;;;;;;2.27;1.30;;;17.20;57.70;;;;;;5049413;28;20205;-47
2023/04/13 06:39:44;;;;;;;3.13;1.53;;;17.20;57.60;;;;;;5042072;28;20279;-47
2023/04/13 06:42:15;;;;;;;3.27;1.20;;;17.20;57.60;;;;;;5037194;28;20197;-47
2023/04/13 06:44:43;;;;;;;1.47;1.07;;;17.20;57.50;;;;;;5049948;28;20307;-47
2023/04/13 06:47:15;;;;;;;2.60;0.93;;;17.20;57.50;;;;;;5051215;28;20210;-46
2023/04/13 06:49:43;;;;;;;3.13;1.00;;;17.20;57.50;;;;;;5049516;28;20199;-46
2023/04/13 06:52:12;;;;;;;2.47;1.00;;;17.20;57.50;;;;;;5037490;28;20201;-47
2023/04/13 06:54:44;;;;;;;3.57;1.00;;;17.10;57.50;;;;;;5046826;28;20217;-46
2023/04/13 06:57:13;;;;;;;2.80;0.80;;;17.10;57.40;;;;;;5060072;28;20222;-48
2023/04/13 06:59:45;;;;;;;2.73;1.23;;;17.20;57.90;;;;;;5049344;28;20205;-46
2023/04/13 07:02:16;;;;;;;2.23;0.83;;;17.10;57.40;;;;;;5049844;28;20198;-47
2023/04/13 07:04:47;;;;;;;2.77;1.00;;;17.20;57.40;;;;;;5062493;28;20662;-46
2023/04/13 07:07:16;;;;;;;1.77;1.10;;;17.20;57.30;;;;;;5059849;28;20194;-47
2023/04/13 07:09:45;;;;;;;2.30;1.00;;;17.10;57.40;;;;;;5042315;28;20201;-47
2023/04/13 07:12:20;;;;;;;6.00;1.47;;;17.20;57.30;;;;;;5038580;28;20217;-46
2023/04/13 07:14:51;;;;;;;2.47;1.00;;;17.10;57.30;;;;;;5046899;28;20538;-47
2023/04/13 07:17:19;;;;;;;1.40;0.70;;;17.10;57.30;;;;;;5032007;28;20730;-47
2023/04/13 07:19:50;;;;;;;1.70;0.60;;;17.10;57.20;;;;;;5049453;28;20294;-47
2023/04/13 07:22:22;;;;;;;1.43;0.80;;;17.10;57.30;;;;;;5052534;28;20291;-46
2023/04/13 07:24:54;;;;;;;2.13;0.80;;;17.10;57.30;;;;;;5065610;28;20946;-46
2023/04/13 07:27:27;;;;;;;2.17;0.67;;;17.10;57.40;;;;;;5050568;28;20194;-46
2023/04/13 07:30:00;;;;;;;3.03;0.93;;;17.10;57.30;;;;;;5034282;28;20201;-46
2023/04/13 07:32:37;;;;;;;1.10;0.80;;;17.10;57.10;;;;;;5067600;28;20201;-46
2023/04/13 07:35:06;;;;;;;4.27;1.10;;;17.10;57.20;;;;;;5063597;28;20214;-47
2023/04/13 07:37:36;;;;;;;2.07;0.70;;;17.10;57.20;;;;;;5044611;28;20207;-46
2023/04/13 07:40:07;;;;;;;2.97;1.00;;;17.10;57.20;;;;;;5056060;28;20255;-46
2023/04/13 07:42:36;;;;;;;3.60;0.90;;;17.10;57.20;;;;;;5061298;28;20530;-46
2023/04/13 07:45:06;;;;;;;1.80;0.80;;;17.10;57.20;;;;;;5034043;28;20229;-46
2023/04/13 07:47:36;;;;;;;1.83;0.70;;;17.10;57.20;;;;;;5054269;28;20198;-48
2023/04/13 07:50:09;;;;;;;2.63;1.00;;;17.10;57.00;;;;;;5056061;28;20221;-46
2023/04/13 07:52:39;;;;;;;1.70;0.90;;;17.10;57.00;;;;;;5063558;28;20216;-46
2023/04/13 07:55:11;;;;;;;1.93;0.80;;;17.10;57.10;;;;;;5045167;28;20201;-46
2023/04/13 07:57:42;;;;;;;1.23;0.80;;;17.10;56.90;;;;;;5062381;28;20215;-46
2023/04/13 08:00:13;;;;;;;2.20;0.97;;;17.10;57.20;;;;;;5052293;28;20198;-46
2023/04/13 08:02:46;;;;;;;2.00;0.87;;;17.10;57.10;;;;;;5041400;28;20218;-46
2023/04/13 08:05:17;;;;;;;1.50;0.97;;;17.10;56.80;;;;;;5053453;28;20214;-46
2023/04/13 08:07:47;;;;;;;1.97;0.97;;;17.10;56.90;;;;;;5065806;28;20263;-46
2023/04/13 08:10:18;;;;;;;0.83;0.43;;;17.10;57.00;;;;;;5054587;28;20525;-46
2023/04/13 08:12:50;;;;;;;1.77;0.90;;;17.10;56.70;;;;;;5046829;28;20193;-47
2023/04/13 08:15:20;;;;;;;1.87;1.03;;;17.10;56.90;;;;;;5069222;28;20197;-45
2023/04/13 08:17:51;;;;;;;3.70;1.30;;;17.10;56.90;;;;;;5051953;28;20225;-47
2023/04/13 08:20:23;;;;;;;3.03;1.13;;;17.10;56.90;;;;;;5053966;28;20536;-47
2023/04/13 08:22:53;;;;;;;1.53;0.90;;;17.10;56.80;;;;;;5046172;28;20222;-47
2023/04/13 08:25:23;;;;;;;3.43;1.23;;;17.10;57.40;;;;;;5070275;28;20682;-47
2023/04/13 08:27:55;;;;;;;2.40;1.10;;;17.10;56.80;;;;;;5059788;28;20198;-47
2023/04/13 08:30:24;;;;;;;3.37;1.13;;;17.10;56.80;;;;;;5063860;28;20198;-47
2023/04/13 08:32:55;;;;;;;1.73;0.90;;;17.10;56.80;;;;;;5042246;28;20227;-46
2023/04/13 08:35:25;;;;;;;2.20;0.93;;;17.10;56.90;;;;;;5035198;28;20198;-46
2023/04/13 08:37:54;;;;;;;1.73;1.00;;;17.10;56.80;;;;;;5057124;28;20193;-47
2023/04/13 08:40:26;;;;;;;2.20;0.93;;;17.10;56.70;;;;;;5071644;28;20204;-46
2023/04/13 08:42:59;;;;;;;2.30;1.13;;;17.10;56.70;;;;;;5062438;28;20201;-47
2023/04/13 08:45:30;;;;;;;3.07;1.20;;;17.10;56.70;;;;;;5074347;28;20245;-45
2023/04/13 08:48:02;;;;;;;2.97;1.43;;;17.10;56.70;;;;;;5052458;28;20218;-48
2023/04/13 08:50:33;;;;;;;3.37;1.50;;;17.10;56.70;;;;;;5026629;28;20203;-46
2023/04/13 08:53:02;;;;;;;3.27;1.47;;;17.10;56.70;;;;;;5060121;28;20194;-46
2023/04/13 08:55:33;;;;;;;2.00;1.00;;;17.10;56.70;;;;;;5064156;28;20198;-47
2023/04/13 08:58:04;;;;;;;3.07;1.07;;;17.10;56.70;;;;;;5041769;28;20225;-46
2023/04/13 09:00:37;;;;;;;3.50;1.20;;;17.10;56.70;;;;;;5032995;28;20206;-47
2023/04/13 09:03:11;;;;;;;2.73;1.00;;;17.10;56.70;;;;;;5058814;28;20186;-46
2023/04/13 09:05:43;;;;;;;3.53;1.20;;;17.10;56.70;;;;;;5058429;28;20212;-47
2023/04/13 09:08:19;;;;;;;2.40;1.03;;;17.10;56.70;;;;;;5040579;28;20183;-47
2023/04/13 09:10:56;;;;;;;2.13;1.20;;;17.10;56.70;;;;;;5042376;28;20576;-47
2023/04/13 09:13:30;;;;;;;3.43;1.23;;;17.10;56.80;;;;;;5047036;28;20205;-47
2023/04/13 09:16:02;;;;;;;1.47;0.90;;;17.10;56.80;;;;;;5056673;28;20196;-46
2023/04/13 09:18:34;;;;;;;3.00;1.33;;;17.10;56.80;;;;;;5057347;28;20198;-47
2023/04/13 09:21:03;;;;;;;4.03;1.57;;;17.10;56.80;;;;;;5068931;28;20331;-46
2023/04/13 09:23:34;;;;;;;1.90;1.13;;;17.10;56.60;;;;;;5063008;28;20201;-46
2023/04/13 09:26:11;;;;;;;4.20;1.57;;;17.10;56.70;;;;;;5069107;28;20223;-46
2023/04/13 09:28:51;;;;;;;3.33;1.27;;;17.10;56.70;;;;;;5048412;28;20217;-46
2023/04/13 09:31:24;;;;;;;4.17;1.30;;;17.10;56.70;;;;;;5041496;28;20203;-46
2023/04/13 09:33:55;;;;;;;3.20;1.10;;;17.10;56.70;;;;;;5027710;28;20202;-46
2023/04/13 09:36:29;;;;;;;2.50;1.37;;;17.10;56.70;;;;;;5041414;28;20286;-47
2023/04/13 09:39:04;;;;;;;2.50;1.33;;;17.10;56.70;;;;;;5068607;28;20197;-46
2023/04/13 09:41:38;;;;;;;3.03;1.60;;;17.10;56.70;;;;;;5053540;28;20629;-47
2023/04/13 09:44:33;;;;;;;2.93;1.40;;;17.10;56.60;;;;;;5045747;28;20210;-47
2023/04/13 09:47:07;;;;;;;2.00;1.00;;;17.10;56.60;;;;;;5026502;28;20639;-47
2023/04/13 09:49:42;;;;;;;2.10;1.17;;;17.10;56.60;;;;;;5066415;28;20186;-47
2023/04/13 09:52:25;;;;;;;2.87;1.30;;;17.10;56.60;;;;;;5038399;28;20206;-47
2023/04/13 09:54:58;;;;;;;4.43;1.60;;;17.10;56.60;;;;;;5044071;28;20190;-47
2023/04/13 09:57:31;;;;;;;2.60;1.60;;;17.10;56.70;;;;;;5051418;28;20220;-47
2023/04/13 10:00:00;;;;;;;2.80;1.50;;;17.10;56.50;;;;;;5016825;28;20247;-47
2023/04/13 10:02:34;;;;;;;2.57;1.27;;;17.10;56.50;;;;;;5033725;28;20194;-47
2023/04/13 10:05:13;;;;;;;4.47;1.30;;;17.10;56.50;;;;;;5042261;28;20223;-47
2023/04/13 10:07:50;;;;;;;2.63;1.43;;;17.20;56.60;;;;;;5064186;28;20240;-47
2023/04/13 10:10:25;;;;;;;2.30;1.20;;;17.20;56.60;;;;;;5048091;28;20252;-47
2023/04/13 10:13:02;;;;;;;1.97;1.10;;;17.20;56.60;;;;;;5047869;28;20365;-47
2023/04/13 10:16:09;;;;;;;3.00;1.20;;;17.20;56.50;;;;;;5034202;28;20196;-47
2023/04/13 10:19:18;;;;;;;3.70;1.63;;;17.10;56.50;;;;;;5048798;28;20206;-47
2023/04/13 10:21:51;;;;;;;4.27;1.23;;;17.20;56.60;;;;;;4931521;28;20269;-46
2023/04/13 10:24:28;;;;;;;3.87;1.50;;;17.20;56.60;;;;;;4950610;28;20360;-46
2023/04/13 10:27:20;;;;;;;3.03;1.30;;;17.20;56.60;;;;;;4929536;29;20288;-46
2023/04/13 10:29:53;;;;;;;3.90;1.60;;;17.20;56.50;;;;;;4947497;29;20225;-46
2023/04/13 10:32:26;;;;;;;2.27;1.57;;;17.20;56.60;;;;;;5033583;28;20737;-46
2023/04/13 10:34:54;;;;;;;3.33;1.70;;;17.20;56.60;;;;;;5044777;28;20256;-46
2023/04/13 10:37:28;;;;;;;1.93;1.40;;;17.20;56.60;;;;;;5070394;28;20258;-46
2023/04/13 10:40:05;;;;;;;2.90;1.47;;;17.20;56.60;;;;;;5039603;28;20206;-46
2023/04/13 10:42:46;;;;;;;2.83;1.50;;;17.20;56.60;;;;;;5046795;28;20268;-46
2023/04/13 10:45:27;;;;;;;3.53;1.20;;;17.20;56.60;;;;;;5053230;28;20256;-46
2023/04/13 10:47:57;;;;;;;4.03;1.70;;;17.30;56.70;;;;;;5026723;28;20205;-47
2023/04/13 10:50:27;;;;;;;3.40;1.60;;;17.20;56.60;;;;;;5059487;28;20210;-47
2023/04/13 10:53:04;;;;;;;3.47;1.60;;;17.20;56.60;;;;;;5049454;28;20194;-47
2023/04/13 10:55:36;;;;;;;2.23;1.20;;;17.20;56.60;;;;;;5054913;28;20545;-46
2023/04/13 10:58:17;;;;;;;2.77;1.37;;;17.20;56.70;;;;;;5053658;28;20218;-47
2023/04/13 11:00:47;;;;;;;3.97;1.40;;;17.30;56.70;;;;;;5038638;28;20502;-46
2023/04/13 11:03:18;;;;;;;2.80;1.47;;;17.20;56.60;;;;;;5023517;28;20229;-46
2023/04/13 11:05:57;;;;;;;2.33;1.27;;;17.30;56.70;;;;;;5058626;28;20250;-46
2023/04/13 11:08:26;;;;;;;3.03;1.60;;;17.20;56.60;;;;;;5044896;28;20255;-46
2023/04/13 11:10:56;;;;;;;2.93;1.30;;;17.20;56.60;;;;;;5026181;28;20746;-46
2023/04/13 11:13:48;;;;;;;3.03;1.33;;;17.30;56.80;;;;;;5031521;28;20630;-45
2023/04/13 11:16:20;;;;;;;4.43;1.50;;;17.30;56.80;;;;;;5036899;28;20190;-46
2023/04/13 11:19:11;;;;;;;1.77;1.40;;;17.30;56.80;;;;;;5053244;28;20579;-46
2023/04/13 11:21:43;;;;;;;4.50;1.13;;;17.30;56.50;;;;;;5037122;28;20237;-46
2023/04/13 11:24:32;;;;;;;2.37;1.10;;;17.30;56.60;;;;;;5031347;28;20678;-47
2023/04/13 11:27:02;;;;;;;3.90;1.30;;;17.30;56.50;;;;;;5028255;28;20276;-46
2023/04/13 11:29:36;;;;;;;3.00;1.63;;;17.30;56.50;;;;;;5048129;28;20588;-46
2023/04/13 11:32:19;;;;;;;4.60;1.07;;;17.30;56.50;;;;;;5050177;28;20260;-46
2023/04/13 11:34:50;;;;;;;3.07;1.40;;;17.30;56.50;;;;;;5048679;28;20233;-46
2023/04/13 11:37:24;;;;;;;3.93;1.70;;;17.30;56.50;;;;;;5035125;28;20209;-46
2023/04/13 11:39:56;;;;;;;3.33;1.60;;;17.30;56.40;;;;;;5051746;28;20606;-47
2023/04/13 11:42:30;;;;;;;2.83;1.50;;;17.30;56.60;;;;;;5055852;28;20202;-46
2023/04/13 11:45:16;;;;;;;3.10;1.30;;;17.30;56.70;;;;;;5031447;28;20698;-46
2023/04/13 11:47:55;;;;;;;2.90;1.47;;;17.30;56.60;;;;;;5036892;28;20690;-46
2023/04/13 11:50:26;;;;;;;2.17;1.03;;;17.30;56.80;;;;;;5065234;28;20194;-46
2023/04/13 11:53:08;;;;;;;3.53;1.50;;;17.40;57.10;;;;;;5053577;28;20210;-46
2023/04/13 11:55:44;;;;;;;2.80;1.37;;;17.40;57.30;;;;;;5029768;28;20187;-46
2023/04/13 11:58:25;;;;;;;2.37;1.47;;;17.40;57.10;;;;;;5033725;28;20206;-46
2023/04/13 12:00:57;;;;;;;2.83;1.10;;;17.50;56.80;;;;;;5046543;28;20191;-47
2023/04/13 12:03:34;;;;;;;6.63;1.30;;;17.40;56.60;;;;;;5051177;28;20752;-47
2023/04/13 12:06:26;;;;;;;2.10;1.17;;;17.40;56.90;;;;;;5021799;28;20206;-47
2023/04/13 12:09:03;;;;;;;2.67;1.47;;;17.50;56.80;;;;;;5044541;28;20289;-47
2023/04/13 12:11:52;;;;;;;3.10;1.50;;;17.60;57.00;;;;;;5062500;28;20585;-47
2023/04/13 12:14:33;;;;;;;3.40;1.50;;;17.50;57.20;;;;;;5053186;28;20191;-47
2023/04/13 12:17:21;;;;;;;2.60;1.40;;;17.60;57.40;;;;;;5048563;28;20202;-47
2023/04/13 12:19:55;;;;;;;6.10;1.50;;;17.60;57.50;;;;;;5059400;28;20222;-47
2023/04/13 12:22:45;;;;;;;4.93;1.50;;;17.60;57.50;;;;;;5031378;28;20737;-46
2023/04/13 12:25:32;;;;;;;3.23;1.40;;;17.70;57.60;;;;;;5046864;28;20214;-46
2023/04/13 12:28:04;;;;;;;3.93;1.30;;;17.70;57.40;;;;;;5050891;28;20205;-48
2023/04/13 12:30:37;;;;;;;3.40;1.30;;;17.70;57.40;;;;;;5050404;28;20197;-48
2023/04/13 12:33:08;;;;;;;4.73;1.77;;;17.70;57.50;;;;;;5048333;28;20697;-48
2023/04/13 12:35:38;;;;;;;2.33;1.47;;;17.70;57.40;;;;;;5063123;28;20260;-48
2023/04/13 12:38:08;;;;;;;4.70;1.40;;;17.70;57.40;;;;;;5058124;28;20199;-47
2023/04/13 12:40:40;;;;;;;2.47;1.43;;;17.70;57.40;;;;;;5054356;28;20206;-46
2023/04/13 12:43:13;;;;;;;3.03;1.70;;;17.70;57.40;;;;;;5045426;28;20190;-45
2023/04/13 12:45:43;;;;;;;4.43;1.63;;;17.80;57.40;;;;;;5048341;28;20241;-46
2023/04/13 12:48:11;;;;;;;4.07;1.40;;;17.80;57.40;;;;;;5054187;28;20206;-46
2023/04/13 12:50:42;;;;;;;2.80;1.40;;;17.80;57.30;;;;;;5054141;28;20270;-46
2023/04/13 12:53:14;;;;;;;2.57;1.20;;;17.80;57.40;;;;;;5063428;28;20195;-48
2023/04/13 12:55:44;;;;;;;2.67;1.13;;;17.80;57.30;;;;;;5039290;28;20647;-48
2023/04/13 12:58:17;;;;;;;4.00;1.57;;;17.80;57.30;;;;;;5048587;28;20214;-46
2023/04/13 13:00:50;;;;;;;3.10;1.40;;;17.90;57.30;;;;;;5043888;28;20508;-47
2023/04/13 13:03:22;;;;;;;4.43;1.23;;;17.90;57.40;;;;;;5045109;28;20195;-47
2023/04/13 13:05:55;;;;;;;3.70;1.47;;;17.90;57.40;;;;;;5023382;28;20249;-47
2023/04/13 13:08:25;;;;;;;2.33;1.40;;;17.90;57.50;;;;;;5056936;28;20226;-47
2023/04/13 13:10:55;;;;;;;3.37;1.43;;;17.90;57.40;;;;;;5057685;28;20433;-47
2023/04/13 13:13:25;;;;;;;2.90;1.50;;;17.90;57.40;;;;;;5029836;28;20198;-47
2023/04/13 13:15:57;;;;;;;6.37;1.50;;;17.90;57.50;;;;;;5063219;28;20206;-47
2023/04/13 13:18:29;;;;;;;1.73;1.07;;;17.90;57.50;;;;;;5044148;28;20256;-48